createdAt,value
2024-03-24T00:00:48.497Z,3.9
2024-03-24T00:02:47.543Z,3.9
2024-03-24T00:04:47.067Z,3.8
2024-03-24T00:06:49.969Z,3.9
2024-03-24T00:08:47.251Z,3.9
2024-03-24T00:10:50.282Z,3.8
2024-03-24T00:12:47.377Z,3.8
2024-03-24T00:14:46.801Z,3.9
2024-03-24T00:16:47.086Z,3.8
2024-03-24T00:18:47.920Z,3.9
2024-03-24T00:22:48.121Z,4
2024-03-24T00:24:50.253Z,3.8
2024-03-24T00:26:46.768Z,3.6
2024-03-24T00:30:47.022Z,3.6
2024-03-24T00:32:46.858Z,3.6
2024-03-24T00:34:47.927Z,3.7
2024-03-24T00:36:47.053Z,3.6
2024-03-24T00:38:48.114Z,3.7
2024-03-24T00:40:46.999Z,3.7
2024-03-24T00:42:47.162Z,3.7
2024-03-24T00:44:49.402Z,3.7
2024-03-24T00:46:48.128Z,3.5
2024-03-24T00:48:47.086Z,3.6
2024-03-24T00:50:46.927Z,3.6
2024-03-24T00:52:54.050Z,3.7
2024-03-24T00:54:47.492Z,3.7
2024-03-24T00:58:47.073Z,3.9
2024-03-24T01:00:47.210Z,3.9
2024-03-24T01:02:46.869Z,3.8
2024-03-24T01:04:49.723Z,3.6
2024-03-24T01:06:47.503Z,4.1
2024-03-24T01:08:46.803Z,3.9
2024-03-24T01:10:47.118Z,4.1
2024-03-24T01:12:47.102Z,3.7
2024-03-24T01:14:48.211Z,3.8
2024-03-24T01:16:50.004Z,3.6
2024-03-24T01:20:46.851Z,4
2024-03-24T01:22:48.163Z,3.8
2024-03-24T01:24:47.806Z,3.7
2024-03-24T01:26:49.681Z,3.6
2024-03-24T01:28:47.027Z,3.5
2024-03-24T01:30:47.623Z,3.7
2024-03-24T01:34:47.138Z,3.7
2024-03-24T01:36:47.556Z,3.7
2024-03-24T01:38:46.831Z,3.3
2024-03-24T01:40:47.063Z,3.5
2024-03-24T01:42:47.087Z,3.6
2024-03-24T01:44:46.881Z,3.4
2024-03-24T01:48:47.022Z,3.4
2024-03-24T01:50:46.838Z,3.4
2024-03-24T01:52:53.270Z,3.6
2024-03-24T01:54:47.049Z,3.5
2024-03-24T01:56:46.879Z,3.6
2024-03-24T01:58:47.701Z,3.9
2024-03-24T02:00:47.063Z,3.7
2024-03-24T02:02:46.937Z,3.8
2024-03-24T02:04:47.154Z,3.7
2024-03-24T02:06:47.143Z,3.4
2024-03-24T02:08:46.936Z,3.3
2024-03-24T02:10:47.510Z,3.3
2024-03-24T02:12:47.027Z,3.2
2024-03-24T02:14:47.396Z,3.4
2024-03-24T02:16:47.006Z,3.4
2024-03-24T02:18:48.857Z,3.4
2024-03-24T02:20:46.844Z,3.5
2024-03-24T02:22:47.076Z,3.5
2024-03-24T02:24:47.460Z,3.2
2024-03-24T02:26:48.125Z,3.2
2024-03-24T02:28:47.061Z,3.1
2024-03-24T02:30:47.521Z,3.2
2024-03-24T02:32:50.114Z,3.4
2024-03-24T02:34:47.142Z,3.2
2024-03-24T02:36:47.100Z,3.3
2024-03-24T02:38:48.554Z,3.4
2024-03-24T02:40:49.066Z,3.1
2024-03-24T02:42:47.027Z,3.3
2024-03-24T02:44:49.807Z,3.4
2024-03-24T02:46:47.051Z,3.4
2024-03-24T02:48:47.106Z,3.5
2024-03-24T02:50:46.872Z,3.5
2024-03-24T02:52:49.961Z,3.5
2024-03-24T02:54:47.048Z,3.5
2024-03-24T02:56:48.117Z,3.6
2024-03-24T02:58:47.090Z,3.6
2024-03-24T03:00:47.103Z,3.5
2024-03-24T03:04:47.003Z,3.5
2024-03-24T03:06:53.817Z,3.5
2024-03-24T03:08:46.790Z,3.6
2024-03-24T03:10:47.551Z,3.7
2024-03-24T03:12:47.054Z,3.4
2024-03-24T03:14:46.884Z,3.4
2024-03-24T03:16:50.071Z,3.5
2024-03-24T03:18:47.073Z,3.4
2024-03-24T03:20:47.285Z,3.4
2024-03-24T03:22:47.018Z,3.5
2024-03-24T03:24:47.127Z,3.4
2024-03-24T03:26:49.734Z,3.6
2024-03-24T03:28:47.023Z,3.5
2024-03-24T03:32:47.175Z,3.5
2024-03-24T03:34:49.855Z,3.5
2024-03-24T03:38:47.385Z,3.5
2024-03-24T03:40:49.667Z,3.3
2024-03-24T03:42:47.297Z,3.4
2024-03-24T03:44:46.921Z,3.4
2024-03-24T03:48:47.066Z,3.2
2024-03-24T03:52:47.447Z,3.3
2024-03-24T03:54:47.036Z,3.3
2024-03-24T03:56:46.897Z,3.3
2024-03-24T03:58:47.136Z,3.3
2024-03-24T04:00:47.580Z,3.4
2024-03-24T04:02:50.065Z,3.4
2024-03-24T04:04:47.398Z,3.4
2024-03-24T04:06:48.206Z,3.3
2024-03-24T04:08:46.883Z,3.3
2024-03-24T04:10:47.078Z,3.3
2024-03-24T04:12:47.143Z,3.4
2024-03-24T04:14:53.609Z,3.4
2024-03-24T04:16:49.608Z,3.4
2024-03-24T04:18:47.116Z,3.4
2024-03-24T04:20:46.863Z,3.4
2024-03-24T04:22:49.931Z,3.4
2024-03-24T04:24:47.054Z,3.4
2024-03-24T04:26:49.863Z,3.3
2024-03-24T04:28:47.441Z,3.1
2024-03-24T04:30:47.140Z,3.3
2024-03-24T04:32:49.763Z,3.3
2024-03-24T04:34:47.023Z,3.3
2024-03-24T04:36:50.093Z,3.3
2024-03-24T04:38:46.796Z,3.2
2024-03-24T04:40:47.049Z,3.2
2024-03-24T04:42:47.129Z,3.3
2024-03-24T04:44:46.878Z,3.4
2024-03-24T04:46:48.483Z,3.4
2024-03-24T04:48:47.080Z,3.4
2024-03-24T04:50:47.008Z,3.4
2024-03-24T04:52:47.122Z,3.6
2024-03-24T04:54:47.113Z,3.5
2024-03-24T04:56:46.878Z,3.6
2024-03-24T04:58:47.858Z,3.7
2024-03-24T05:00:47.039Z,3.7
2024-03-24T05:02:46.892Z,3.7
2024-03-24T05:04:50.990Z,3.4
2024-03-24T05:06:47.092Z,3.3
2024-03-24T05:08:46.888Z,3.3
2024-03-24T05:10:47.102Z,3.1
2024-03-24T05:12:47.307Z,3.1
2024-03-24T05:14:47.562Z,2.8
2024-03-24T05:16:47.406Z,2.9
2024-03-24T05:18:47.099Z,2.9
2024-03-24T05:20:48.278Z,2.9
2024-03-24T05:22:47.466Z,2.8
2024-03-24T05:24:47.420Z,2.9
2024-03-24T05:26:46.817Z,2.8
2024-03-24T05:28:54.678Z,2.9
2024-03-24T05:30:47.082Z,2.9
2024-03-24T05:32:48.632Z,2.9
2024-03-24T05:34:47.044Z,3
2024-03-24T05:38:46.823Z,3.2
2024-03-24T05:40:47.285Z,3.4
2024-03-24T05:42:47.186Z,3.8
2024-03-24T05:44:47.303Z,3.7
2024-03-24T05:46:47.037Z,3.6
2024-03-24T05:48:49.461Z,3.5
2024-03-24T05:50:46.905Z,3.4
2024-03-24T05:52:50.242Z,3.6
2024-03-24T05:54:48.542Z,3.5
2024-03-24T05:56:50.070Z,3.6
2024-03-24T05:58:47.114Z,3.7
2024-03-24T06:00:47.189Z,3.7
2024-03-24T06:02:48.177Z,3.8
2024-03-24T06:04:47.018Z,3.6
2024-03-24T06:08:48.125Z,3.4
2024-03-24T06:10:47.846Z,3.5
2024-03-24T06:12:47.558Z,3.5
2024-03-24T06:14:46.831Z,3.7
2024-03-24T06:16:47.574Z,3.8
2024-03-24T06:18:47.123Z,3.9
2024-03-24T06:20:57.010Z,3.9
2024-03-24T06:22:47.721Z,3.8
2024-03-24T06:24:47.581Z,3.9
2024-03-24T06:26:46.837Z,3.8
2024-03-24T06:28:47.101Z,3.7
2024-03-24T06:30:47.180Z,3.7
2024-03-24T06:32:48.150Z,3.9
2024-03-24T06:36:47.513Z,3.8
2024-03-24T06:38:46.814Z,4.2
2024-03-24T06:40:48.578Z,4
2024-03-24T06:42:47.086Z,4.1
2024-03-24T06:44:48.154Z,4.2
2024-03-24T06:48:47.524Z,4.4
2024-03-24T06:50:46.802Z,4.2
2024-03-24T06:52:48.163Z,4.3
2024-03-24T06:56:46.867Z,4.5
2024-03-24T06:58:48.156Z,4.5
2024-03-24T07:00:55.799Z,5.1
2024-03-24T07:02:47.454Z,5.4
2024-03-24T07:04:47.072Z,4.9
2024-03-24T07:08:46.856Z,7.8
2024-03-24T07:10:47.140Z,5.7
2024-03-24T07:12:50.084Z,5
2024-03-24T07:14:46.837Z,4.7
2024-03-24T07:16:48.164Z,5.3
2024-03-24T07:18:47.595Z,5.4
2024-03-24T07:20:46.801Z,5.2
2024-03-24T07:22:47.244Z,5.1
2024-03-24T07:24:47.109Z,7
2024-03-24T07:26:48.798Z,7.4
2024-03-24T07:28:47.035Z,8.1
2024-03-24T07:32:49.373Z,8.4
2024-03-24T07:34:47.327Z,7
2024-03-24T07:36:47.189Z,5.8
2024-03-24T07:38:47.266Z,5.6
2024-03-24T07:40:47.038Z,5.5
2024-03-24T07:42:47.184Z,5.4
2024-03-24T07:44:49.985Z,5
2024-03-24T07:48:50.337Z,4.5
2024-03-24T07:50:48.208Z,4.8
2024-03-24T07:52:47.084Z,4.6
2024-03-24T07:54:57.085Z,4.7
2024-03-24T07:56:46.891Z,5
2024-03-24T07:58:50.050Z,4.9
2024-03-24T08:00:49.727Z,4.8
2024-03-24T08:02:46.972Z,5.6
2024-03-24T08:04:50.048Z,6.4
2024-03-24T08:06:48.199Z,7
2024-03-24T08:08:48.123Z,6.4
2024-03-24T08:10:47.447Z,5.9
2024-03-24T08:12:50.556Z,5.6
2024-03-24T08:14:46.831Z,5.7
2024-03-24T08:16:49.888Z,5.8
2024-03-24T08:18:47.071Z,6.9
2024-03-24T08:20:54.528Z,6
2024-03-24T08:22:48.070Z,5.9
2024-03-24T08:24:47.140Z,6.6
2024-03-24T08:26:46.926Z,6
2024-03-24T08:28:47.585Z,5.6
2024-03-24T08:30:47.056Z,5.3
2024-03-24T08:32:49.714Z,5.3
2024-03-24T08:34:47.055Z,5.6
2024-03-24T08:36:47.100Z,5.5
2024-03-24T08:38:48.195Z,5.8
2024-03-24T08:42:47.119Z,5.8
2024-03-24T08:44:53.444Z,6.3
2024-03-24T08:46:48.392Z,6
2024-03-24T08:50:49.755Z,7.5
2024-03-24T08:57:02.865Z,7.6
2024-03-24T08:59:02.138Z,7.7
2024-03-24T09:05:02.682Z,7.8
2024-03-24T09:09:02.121Z,6.2
2024-03-24T09:13:02.800Z,8.1
2024-03-24T09:15:01.511Z,8.3
2024-03-24T09:17:01.416Z,6.7
2024-03-24T09:19:02.054Z,8.2
2024-03-24T09:21:02.145Z,7.9
2024-03-24T09:22:59.600Z,8.5
2024-03-24T09:25:02.413Z,8.7
2024-03-24T09:29:00.949Z,7.6
2024-03-24T09:31:01.654Z,8.6
2024-03-24T09:33:02.168Z,8.7
2024-03-24T09:35:05.403Z,8.8
2024-03-24T09:37:02.759Z,9
2024-03-24T09:39:01.860Z,9.1
2024-03-24T09:41:00.753Z,8.8
2024-03-24T09:43:02.552Z,9
2024-03-24T09:47:00.905Z,8.9
2024-03-24T09:49:01.713Z,9.2
2024-03-24T09:53:02.240Z,9.5
2024-03-24T09:55:00.486Z,9.5
2024-03-24T09:56:57.696Z,9.1
2024-03-24T09:59:02.272Z,8.8
2024-03-24T10:01:02.266Z,9.5
2024-03-24T10:03:00.518Z,9.7
2024-03-24T10:05:02.545Z,9.5
2024-03-24T10:07:02.103Z,9.3
2024-03-24T10:08:59.451Z,9.2
2024-03-24T10:13:02.626Z,9.2
2024-03-24T10:14:59.081Z,9.2
2024-03-24T10:17:00.483Z,9.3
2024-03-24T10:19:02.494Z,9.2
2024-03-24T10:20:59.555Z,9.2
2024-03-24T10:23:01.652Z,8.4
2024-03-24T10:28:59.066Z,8.7
2024-03-24T10:31:01.884Z,8.2
2024-03-24T10:33:02.480Z,8.5
2024-03-24T10:34:59.014Z,8.3
2024-03-24T10:36:58.694Z,8.6
2024-03-24T10:39:02.335Z,8.3
2024-03-24T10:40:59.734Z,7.8
2024-03-24T10:43:00.389Z,7.6
2024-03-24T10:45:01.590Z,7.7
2024-03-24T10:47:00.078Z,7.5
2024-03-24T10:48:59.082Z,7.3
2024-03-24T10:51:01.263Z,7.1
2024-03-24T10:53:00.840Z,7.4
2024-03-24T10:55:00.369Z,7.4
2024-03-24T10:59:00.948Z,7.7
2024-03-24T11:00:57.692Z,7.8
2024-03-24T11:03:02.283Z,7.7
2024-03-24T11:04:59.122Z,7.7
2024-03-24T11:07:01.906Z,7.2
2024-03-24T11:09:02.541Z,7.1
2024-03-24T11:11:00.568Z,7.4
2024-03-24T11:13:01.379Z,7.6
2024-03-24T11:16:57.345Z,7.3
2024-03-24T11:18:59.992Z,7.2
2024-03-24T11:22:59.278Z,7
2024-03-24T11:25:01.096Z,6.9
2024-03-24T11:27:00.503Z,6.9
2024-03-24T11:29:01.023Z,6.7
2024-03-24T11:31:00.105Z,6.9
2024-03-24T11:33:02.797Z,6.7
2024-03-24T11:35:00.127Z,6.8
2024-03-24T11:37:00.795Z,6.9
2024-03-24T11:39:02.220Z,6.8
2024-03-24T11:40:57.361Z,6.8
2024-03-24T11:43:01.720Z,6.8
2024-03-24T11:45:02.249Z,6.9
2024-03-24T11:47:00.553Z,6.8
2024-03-24T11:49:01.935Z,6.5
2024-03-24T11:51:02.207Z,6.7
2024-03-24T11:53:01.503Z,7.1
2024-03-24T11:54:59.988Z,7.5
2024-03-24T11:57:02.519Z,7.5
2024-03-24T11:59:01.022Z,7.5
2024-03-24T12:00:59.105Z,7.2
2024-03-24T12:04:57.675Z,6.9
2024-03-24T12:07:01.407Z,6.7
2024-03-24T12:09:02.987Z,5.7
2024-03-24T12:11:02.276Z,5.1
2024-03-24T12:12:57.808Z,5.7
2024-03-24T12:15:02.360Z,5.9
2024-03-24T12:17:01.356Z,6.4
2024-03-24T12:19:00.011Z,6.8
2024-03-24T12:21:02.428Z,7.7
2024-03-24T12:23:00.560Z,8.1
2024-03-24T12:25:02.076Z,7.9
2024-03-24T12:27:02.755Z,8.3
2024-03-24T12:29:01.679Z,8
2024-03-24T12:30:59.192Z,7.6
2024-03-24T12:34:59.247Z,7.7
2024-03-24T12:37:02.024Z,8.1
2024-03-24T12:39:02.731Z,7.9
2024-03-24T12:41:00.977Z,7.9
2024-03-24T12:43:01.866Z,7.4
2024-03-24T12:45:02.721Z,7.2
2024-03-24T12:46:59.213Z,7.2
2024-03-24T12:48:59.664Z,7.2
2024-03-24T12:51:02.588Z,6.6
2024-03-24T12:52:59.111Z,6.6
2024-03-24T12:55:01.627Z,6.6
2024-03-24T12:57:02.783Z,7.2
2024-03-24T12:58:59.245Z,7
2024-03-24T13:01:00.492Z,6.8
2024-03-24T13:03:02.785Z,6.9
2024-03-24T13:04:57.797Z,7.3
2024-03-24T13:07:01.654Z,7.5
2024-03-24T13:09:02.808Z,7.9
2024-03-24T13:11:05.705Z,8
2024-03-24T13:13:02.003Z,7.8
2024-03-24T13:15:02.894Z,7.3
2024-03-24T13:17:01.897Z,7.1
2024-03-24T13:18:59.058Z,6.6
2024-03-24T13:21:02.675Z,7.1
2024-03-24T13:23:02.049Z,7.4
2024-03-24T13:25:00.579Z,8.1
2024-03-24T13:27:02.532Z,8.5
2024-03-24T13:28:59.077Z,7.6
2024-03-24T13:31:01.516Z,7.4
2024-03-24T13:35:00.143Z,6.8
2024-03-24T13:36:58.784Z,6.6
2024-03-24T13:39:02.577Z,6.9
2024-03-24T13:40:59.777Z,7.4
2024-03-24T13:43:02.528Z,7.6
2024-03-24T13:45:03.834Z,7.2
2024-03-24T13:46:59.438Z,7.2
2024-03-24T13:49:02.047Z,7.3
2024-03-24T13:51:02.298Z,7.1
2024-03-24T13:52:59.194Z,7.3
2024-03-24T13:55:04.232Z,6.8
2024-03-24T13:57:02.454Z,6.3
2024-03-24T13:59:00.649Z,6.6
2024-03-24T14:00:57.774Z,6.4
2024-03-24T14:03:02.572Z,6.1
2024-03-24T14:05:02.012Z,6
2024-03-24T14:07:03.478Z,5.9
2024-03-24T14:11:00.584Z,5.6
2024-03-24T14:13:03.152Z,5.7
2024-03-24T14:15:02.664Z,5.5
2024-03-24T14:17:01.627Z,5.4
2024-03-24T14:19:04.899Z,5.2
2024-03-24T14:21:02.636Z,5.2
2024-03-24T14:23:01.662Z,5.4
2024-03-24T14:24:57.802Z,5.5
2024-03-24T14:27:02.706Z,5.3
2024-03-24T14:28:57.760Z,5.4
2024-03-24T14:31:01.917Z,5.2
2024-03-24T14:33:02.481Z,5.1
2024-03-24T14:34:58.954Z,5.1
2024-03-24T14:37:02.909Z,5.2
2024-03-24T14:39:02.576Z,5.2
2024-03-24T14:40:57.483Z,5.1
2024-03-24T14:43:04.094Z,4.9
2024-03-24T14:45:02.730Z,5.1
2024-03-24T14:46:59.400Z,5.2
2024-03-24T14:49:05.081Z,5.1
2024-03-24T14:51:02.348Z,5.1
2024-03-24T14:53:02.084Z,4.6
2024-03-24T14:55:02.428Z,4.4
2024-03-24T14:59:02.103Z,5
2024-03-24T15:00:59.100Z,5.1
2024-03-24T15:03:02.903Z,5.4
2024-03-24T15:05:01.954Z,5.3
2024-03-24T15:07:01.070Z,5.7
2024-03-24T15:11:02.621Z,5.6
2024-03-24T15:12:59.531Z,5.7
2024-03-24T15:15:01.112Z,5.7
2024-03-24T15:18:58.674Z,6
2024-03-24T15:21:00.599Z,5.7
2024-03-24T15:23:02.484Z,5.4
2024-03-24T15:25:00.194Z,5.5
2024-03-24T15:27:00.087Z,5.6
2024-03-24T15:30:59.652Z,4.9
2024-03-24T15:33:01.799Z,4.6
2024-03-24T15:37:01.040Z,5.7
2024-03-24T15:39:00.023Z,5.7
2024-03-24T15:43:00.656Z,5.5
2024-03-24T15:45:01.008Z,5.2
2024-03-24T15:47:02.706Z,5.1
2024-03-24T15:49:02.386Z,5.8
2024-03-24T15:51:01.136Z,6.3
2024-03-24T15:53:02.812Z,6.8
2024-03-24T15:55:01.127Z,6.1
2024-03-24T15:57:00.930Z,6.4
2024-03-24T16:01:00.184Z,6
2024-03-24T16:03:00.558Z,6
2024-03-24T16:07:02.659Z,6.5
2024-03-24T16:09:00.591Z,6.6
2024-03-24T16:10:59.127Z,6.6
2024-03-24T16:13:02.830Z,6.6
2024-03-24T16:15:01.237Z,6.5
2024-03-24T16:17:00.575Z,7.3
2024-03-24T16:19:02.215Z,7.1
2024-03-24T16:20:59.128Z,7.2
2024-03-24T16:23:02.467Z,6.5
2024-03-24T16:25:03.417Z,6.2
2024-03-24T16:26:59.107Z,5.8
2024-03-24T16:29:02.272Z,5.9
2024-03-24T16:31:02.213Z,6
2024-03-24T16:32:59.637Z,6.6
2024-03-24T16:34:58.807Z,6.3
2024-03-24T16:37:02.758Z,6.3
2024-03-24T16:39:01.927Z,6.1
2024-03-24T16:41:00.113Z,6
2024-03-24T16:43:02.424Z,5.8
2024-03-24T16:44:59.126Z,5.6
2024-03-24T16:47:00.975Z,5.7
2024-03-24T16:49:02.568Z,5.4
2024-03-24T16:51:01.797Z,5.4
2024-03-24T16:52:59.232Z,5.5
2024-03-24T16:57:00.839Z,5.5
2024-03-24T16:59:01.797Z,5.6
2024-03-24T17:01:02.434Z,5.5
2024-03-24T17:03:01.039Z,5.4
2024-03-24T17:05:00.531Z,5.4
2024-03-24T17:07:01.608Z,4.8
2024-03-24T17:09:01.048Z,4.8
2024-03-24T17:11:00.087Z,4.6
2024-03-24T17:13:02.434Z,4.5
2024-03-24T17:15:02.072Z,4.6
2024-03-24T17:16:59.079Z,4.4
2024-03-24T17:19:02.568Z,4.3
2024-03-24T17:20:58.169Z,4.2
2024-03-24T17:23:01.712Z,4.2
2024-03-24T17:25:02.629Z,4.3
2024-03-24T17:27:00.228Z,4.2
2024-03-24T17:29:00.588Z,4.1
2024-03-24T17:31:00.320Z,4.2
2024-03-24T17:32:56.181Z,4.2
2024-03-24T17:34:56.101Z,4.1
2024-03-24T17:36:56.587Z,4
2024-03-24T17:38:56.082Z,4
2024-03-24T17:40:56.121Z,4.1
2024-03-24T17:42:56.526Z,4.1
2024-03-24T17:44:56.074Z,4
2024-03-24T17:46:58.662Z,4.1
2024-03-24T17:48:57.390Z,4.1
2024-03-24T17:50:56.066Z,4.1
2024-03-24T17:52:56.092Z,4.1
2024-03-24T17:54:57.393Z,4.2
2024-03-24T17:56:56.042Z,4.2
2024-03-24T18:00:56.504Z,4.3
2024-03-24T18:02:56.824Z,4.1
2024-03-24T18:04:57.298Z,4.2
2024-03-24T18:06:59.453Z,4.2
2024-03-24T18:08:56.216Z,4.2
2024-03-24T18:10:56.114Z,4.2
2024-03-24T18:12:58.913Z,4.2
2024-03-24T18:16:59.401Z,4.3
2024-03-24T18:18:56.672Z,4.3
2024-03-24T18:20:56.257Z,4.4
2024-03-24T18:22:56.151Z,4.4
2024-03-24T18:24:58.702Z,4.3
2024-03-24T18:26:56.137Z,4.4
2024-03-24T18:28:59.339Z,4.4
2024-03-24T18:30:57.223Z,4.4
2024-03-24T18:32:56.080Z,4.4
2024-03-24T18:34:56.085Z,4.5
2024-03-24T18:36:58.723Z,4.4
2024-03-24T18:40:56.004Z,4.5
2024-03-24T18:42:59.290Z,4.5
2024-03-24T18:44:56.120Z,4.3
2024-03-24T18:48:56.986Z,4.3
2024-03-24T18:52:56.454Z,4.1
2024-03-24T18:54:56.459Z,4.1
2024-03-24T18:56:56.650Z,4.1
2024-03-24T18:58:56.001Z,4.1
2024-03-24T19:00:56.991Z,4.1
2024-03-24T19:02:56.750Z,4.2
2024-03-24T19:04:56.740Z,4.2
2024-03-24T19:06:56.485Z,4.2
2024-03-24T19:08:56.457Z,4.2
2024-03-24T19:10:56.446Z,4.3
2024-03-24T19:12:56.651Z,4.3
2024-03-24T19:14:56.697Z,4.2
2024-03-24T19:16:59.305Z,4.2
2024-03-24T19:18:59.628Z,4.2
2024-03-24T19:20:59.273Z,4.1
2024-03-24T19:22:56.101Z,4.1
2024-03-24T19:24:56.542Z,4.2
2024-03-24T19:26:56.104Z,4.2
2024-03-24T19:28:57.348Z,4.3
2024-03-24T19:30:57.540Z,4.4
2024-03-24T19:32:56.007Z,4.2
2024-03-24T19:34:56.172Z,4.2
2024-03-24T19:36:56.621Z,4.1
2024-03-24T19:38:56.791Z,4.1
2024-03-24T19:40:56.516Z,4
2024-03-24T19:42:57.306Z,4
2024-03-24T19:44:56.379Z,4
2024-03-24T19:46:56.015Z,4
2024-03-24T19:48:56.621Z,4
2024-03-24T19:50:56.139Z,4
2024-03-24T19:52:56.097Z,3.9
2024-03-24T19:54:58.684Z,4
2024-03-24T19:56:56.121Z,4
2024-03-24T19:58:57.416Z,3.8
2024-03-24T20:00:56.515Z,4
2024-03-24T20:02:56.453Z,3.9
2024-03-24T20:04:56.019Z,4
2024-03-24T20:06:56.504Z,4
2024-03-24T20:08:56.230Z,4
2024-03-24T20:10:56.086Z,3.9
2024-03-24T20:12:59.285Z,4
2024-03-24T20:14:56.814Z,4
2024-03-24T20:16:56.149Z,4
2024-03-24T20:18:57.077Z,4.1
2024-03-24T20:20:56.130Z,4
2024-03-24T20:22:56.569Z,4.1
2024-03-24T20:24:56.692Z,4.1
2024-03-24T20:26:56.068Z,4.1
2024-03-24T20:28:56.085Z,4
2024-03-24T20:32:56.844Z,4
2024-03-24T20:34:56.493Z,4
2024-03-24T20:40:56.862Z,4
2024-03-24T20:42:56.548Z,4.1
2024-03-24T20:48:56.934Z,4.1
2024-03-24T20:50:56.063Z,4.1
2024-03-24T20:54:56.513Z,4.3
2024-03-24T20:56:56.161Z,4.4
2024-03-24T20:58:57.396Z,4.4
2024-03-24T21:00:57.394Z,4.3
2024-03-24T21:06:57.349Z,4.3
2024-03-24T21:08:56.199Z,4.2
2024-03-24T21:10:56.547Z,4.2
2024-03-24T21:12:57.387Z,4.3
2024-03-24T21:14:56.098Z,4.3
2024-03-24T21:16:56.840Z,4.3
2024-03-24T21:18:56.571Z,4.3
2024-03-24T21:20:56.096Z,4.3
2024-03-24T21:22:59.484Z,4.2
2024-03-24T21:24:56.475Z,4.2
2024-03-24T21:26:56.576Z,4.1
2024-03-24T21:28:56.034Z,4.1
2024-03-24T21:30:56.555Z,4.2
2024-03-24T21:32:56.129Z,4.2
2024-03-24T21:34:57.375Z,4.3
2024-03-24T21:36:56.994Z,4.2
2024-03-24T21:38:56.069Z,4.1
2024-03-24T21:40:56.093Z,4.2
2024-03-24T21:42:57.051Z,4.1
2024-03-24T21:44:56.083Z,4
2024-03-24T21:46:58.680Z,4
2024-03-24T21:48:56.605Z,4.2
2024-03-24T21:50:56.875Z,4
2024-03-24T21:52:56.050Z,4
2024-03-24T21:58:56.083Z,4.1
2024-03-24T22:00:56.548Z,4
2024-03-24T22:02:56.131Z,4
2024-03-24T22:04:56.110Z,4
2024-03-24T22:07:00.514Z,4
2024-03-24T22:08:56.070Z,4.1
2024-03-24T22:10:56.121Z,4
2024-03-24T22:12:56.587Z,4
2024-03-24T22:14:56.106Z,4
2024-03-24T22:16:56.111Z,4
2024-03-24T22:20:56.026Z,4
2024-03-24T22:22:57.412Z,4.3
2024-03-24T22:24:57.400Z,4.2
2024-03-24T22:26:57.472Z,4.1
2024-03-24T22:28:59.520Z,4
2024-03-24T22:30:56.544Z,4.1
2024-03-24T22:32:56.165Z,4
2024-03-24T22:34:59.304Z,4.1
2024-03-24T22:36:58.710Z,4
2024-03-24T22:38:56.606Z,4
2024-03-24T22:42:57.382Z,4.1
2024-03-24T22:44:58.971Z,4
2024-03-24T22:46:56.127Z,4.1
2024-03-24T22:48:57.401Z,4.1
2024-03-24T22:50:59.385Z,4.2
2024-03-24T22:52:58.514Z,4.1
2024-03-24T22:56:58.381Z,4.2
2024-03-24T23:04:09.276Z,4.1
2024-03-24T23:06:06.223Z,4
2024-03-24T23:08:06.870Z,4.1
2024-03-24T23:10:21.330Z,4.3
2024-03-24T23:12:33.921Z,4.2
2024-03-24T23:14:30.184Z,4.1
2024-03-24T23:16:28.543Z,4.2
2024-03-24T23:18:51.873Z,4.2
2024-03-24T23:20:45.616Z,4.2
2024-03-24T23:23:04.314Z,4.4
2024-03-24T23:32:44.282Z,4.2
2024-03-24T23:34:37.088Z,4.2
2024-03-24T23:37:08.135Z,4.1
2024-03-24T23:39:58.515Z,4.3
2024-03-24T23:43:51.696Z,4.1
2024-03-24T23:49:18.546Z,4.2
2024-03-24T23:51:14.307Z,4.1
2024-03-24T23:53:14.057Z,4.2
2024-03-24T23:55:33.231Z,4.1
2024-03-24T23:57:25.085Z,4.2
2024-03-24T23:59:59.556Z,4.1
